createdAt,value
2023-04-14T00:01:02.742Z,65.00
2023-04-14T00:03:31.101Z,64.90
2023-04-14T00:05:59.376Z,65.00
2023-04-14T00:08:27.388Z,65.10
2023-04-14T00:10:55.414Z,65.10
2023-04-14T00:13:24.854Z,65.00
2023-04-14T00:15:52.954Z,65.10
2023-04-14T00:18:21.128Z,65.00
2023-04-14T00:20:49.321Z,65.10
2023-04-14T00:23:18.455Z,65.10
2023-04-14T00:25:46.530Z,65.00
2023-04-14T00:28:14.569Z,65.10
2023-04-14T00:30:44.072Z,65.20
2023-04-14T00:33:12.117Z,65.20
2023-04-14T00:35:40.328Z,65.20
2023-04-14T00:38:08.392Z,65.20
2023-04-14T00:40:36.466Z,65.10
2023-04-14T00:43:04.497Z,65.10
2023-04-14T00:45:32.664Z,65.10
2023-04-14T00:48:02.136Z,65.20
2023-04-14T00:50:30.579Z,65.20
2023-04-14T00:52:59.015Z,65.20
2023-04-14T00:55:27.189Z,65.30
2023-04-14T00:57:56.303Z,65.20
2023-04-14T01:00:24.418Z,65.20
2023-04-14T01:02:52.690Z,65.20
2023-04-14T01:05:22.416Z,65.20
2023-04-14T01:07:51.308Z,65.20
2023-04-14T01:10:19.498Z,65.40
2023-04-14T01:13:07.299Z,65.40
2023-04-14T01:15:40.512Z,65.50
2023-04-14T01:18:18.109Z,65.40
2023-04-14T01:20:51.347Z,65.30
2023-04-14T01:23:28.542Z,65.30
2023-04-14T01:26:19.506Z,65.30
2023-04-14T01:29:07.986Z,65.20
2023-04-14T01:31:42.214Z,65.20
2023-04-14T01:34:15.028Z,65.30
2023-04-14T01:36:45.849Z,65.30
2023-04-14T01:39:20.703Z,65.20
2023-04-14T01:41:53.311Z,65.30
2023-04-14T01:44:23.405Z,65.30
2023-04-14T01:46:57.584Z,65.30
2023-04-14T01:49:28.231Z,65.30
2023-04-14T01:51:57.164Z,65.30
2023-04-14T01:54:26.069Z,65.30
2023-04-14T01:56:57.081Z,65.30
2023-04-14T01:59:27.034Z,65.50
2023-04-14T02:01:57.259Z,65.50
2023-04-14T02:04:28.609Z,65.60
2023-04-14T02:06:57.378Z,65.60
2023-04-14T02:09:27.800Z,65.50
2023-04-14T02:11:56.726Z,65.50
2023-04-14T02:14:25.537Z,65.50
2023-04-14T02:16:57.363Z,65.50
2023-04-14T02:19:28.116Z,65.50
2023-04-14T02:21:57.833Z,65.40
2023-04-14T02:24:26.300Z,65.40
2023-04-14T02:26:59.433Z,65.40
2023-04-14T02:29:28.448Z,65.40
2023-04-14T02:32:01.654Z,66.10
2023-04-14T02:34:33.026Z,65.40
2023-04-14T02:37:10.877Z,65.40
2023-04-14T02:39:43.985Z,65.50
2023-04-14T02:42:15.939Z,65.50
2023-04-14T02:44:49.728Z,65.60
2023-04-14T02:47:26.736Z,65.50
2023-04-14T02:49:57.217Z,65.50
2023-04-14T02:52:28.432Z,65.50
2023-04-14T02:54:57.447Z,65.70
2023-04-14T02:57:26.812Z,65.70
2023-04-14T02:59:57.341Z,65.70
2023-04-14T03:02:28.304Z,65.80
2023-04-14T03:04:56.839Z,65.80
2023-04-14T03:07:26.515Z,65.80
2023-04-14T03:09:55.399Z,65.90
2023-04-14T03:12:26.528Z,65.90
2023-04-14T03:14:55.268Z,65.90
2023-04-14T03:17:24.161Z,65.90
2023-04-14T03:19:54.266Z,66.00
2023-04-14T03:22:23.111Z,66.10
2023-04-14T03:24:51.574Z,66.10
2023-04-14T03:27:25.921Z,66.10
2023-04-14T03:29:56.429Z,66.10
2023-04-14T03:32:27.553Z,66.20
2023-04-14T03:35:01.354Z,66.30
2023-04-14T03:37:32.702Z,66.30
2023-04-14T03:40:05.752Z,66.40
2023-04-14T03:42:35.729Z,66.40
2023-04-14T03:45:04.750Z,67.10
2023-04-14T03:47:33.555Z,66.50
2023-04-14T03:50:04.423Z,66.70
2023-04-14T03:52:35.957Z,66.60
2023-04-14T03:55:07.237Z,66.70
2023-04-14T03:57:37.343Z,66.70
2023-04-14T04:00:09.209Z,66.80
2023-04-14T04:02:38.789Z,66.70
2023-04-14T04:05:10.814Z,66.80
2023-04-14T04:07:41.445Z,66.80
2023-04-14T04:10:10.489Z,66.80
2023-04-14T04:12:39.978Z,66.70
2023-04-14T04:15:09.412Z,66.70
2023-04-14T04:17:39.227Z,66.70
2023-04-14T04:20:13.866Z,66.80
2023-04-14T04:22:43.116Z,66.90
2023-04-14T04:25:12.887Z,67.00
2023-04-14T04:27:40.957Z,67.00
2023-04-14T04:30:10.604Z,67.00
2023-04-14T04:32:39.136Z,67.00
2023-04-14T04:35:10.103Z,67.00
2023-04-14T04:37:39.407Z,67.00
2023-04-14T04:40:08.846Z,67.00
2023-04-14T04:42:42.128Z,67.20
2023-04-14T04:45:11.237Z,67.10
2023-04-14T04:47:39.422Z,67.10
2023-04-14T04:50:09.615Z,67.10
2023-04-14T04:52:37.730Z,67.10
2023-04-14T04:55:06.903Z,67.10
2023-04-14T04:57:34.959Z,67.10
2023-04-14T05:00:03.109Z,67.10
2023-04-14T05:02:31.626Z,67.10
2023-04-14T05:04:59.762Z,67.10
2023-04-14T05:07:29.197Z,67.10
2023-04-14T05:09:57.265Z,67.10
2023-04-14T05:12:25.363Z,67.10
2023-04-14T05:14:53.409Z,67.20
2023-04-14T05:17:21.723Z,67.30
2023-04-14T05:19:50.498Z,67.30
2023-04-14T05:22:18.580Z,67.40
2023-04-14T05:24:51.524Z,67.40
2023-04-14T05:27:19.600Z,67.50
2023-04-14T05:29:47.643Z,66.40
2023-04-14T05:32:15.860Z,66.40
2023-04-14T05:34:43.896Z,66.40
2023-04-14T05:37:12.291Z,66.40
2023-04-14T05:39:40.355Z,66.50
2023-04-14T05:42:09.756Z,66.60
2023-04-14T05:44:37.862Z,66.60
2023-04-14T05:47:06.182Z,66.60
2023-04-14T05:49:34.248Z,66.50
2023-04-14T05:52:02.365Z,67.20
2023-04-14T05:54:30.557Z,66.60
2023-04-14T05:56:58.624Z,66.70
2023-04-14T05:59:28.383Z,66.70
2023-04-14T06:01:56.521Z,66.60
2023-04-14T06:04:24.734Z,66.60
2023-04-14T06:06:52.936Z,66.70
2023-04-14T06:09:21.549Z,66.80
2023-04-14T06:11:49.612Z,66.70
2023-04-14T06:14:17.683Z,66.90
2023-04-14T06:16:47.492Z,66.90
2023-04-14T06:19:15.706Z,66.80
2023-04-14T06:21:43.754Z,66.80
2023-04-14T06:24:11.814Z,66.90
2023-04-14T06:26:39.880Z,66.90
2023-04-14T06:29:08.531Z,67.00
2023-04-14T06:31:36.831Z,67.00
2023-04-14T06:34:06.341Z,66.90
2023-04-14T06:36:34.396Z,67.00
2023-04-14T06:39:02.982Z,66.90
2023-04-14T06:41:31.232Z,67.00
2023-04-14T06:43:59.279Z,67.00
2023-04-14T06:46:27.439Z,67.00
2023-04-14T06:48:55.604Z,67.00
2023-04-14T06:51:25.005Z,67.20
2023-04-14T06:53:53.069Z,67.20
2023-04-14T06:56:21.469Z,67.00
2023-04-14T06:58:49.597Z,66.90
2023-04-14T07:01:17.799Z,66.90
2023-04-14T07:03:46.096Z,67.10
2023-04-14T07:06:17.209Z,67.00
2023-04-14T07:08:46.887Z,67.10
2023-04-14T07:11:15.162Z,67.00
2023-04-14T07:13:43.272Z,66.90
2023-04-14T07:16:11.414Z,66.90
2023-04-14T07:18:39.529Z,66.90
2023-04-14T07:21:07.782Z,66.90
2023-04-14T07:23:35.825Z,66.80
2023-04-14T07:26:05.605Z,66.70
2023-04-14T07:28:33.758Z,66.70
2023-04-14T07:31:09.134Z,66.70
2023-04-14T07:33:37.515Z,66.70
2023-04-14T07:36:06.202Z,66.40
2023-04-14T07:38:34.464Z,66.30
2023-04-14T07:41:06.881Z,66.20
2023-04-14T07:43:36.009Z,66.20
2023-04-14T07:46:05.762Z,66.20
2023-04-14T07:48:35.346Z,66.20
2023-04-14T07:51:04.388Z,66.00
2023-04-14T07:53:32.525Z,66.70
2023-04-14T07:56:01.198Z,66.00
2023-04-14T07:58:30.682Z,66.00
2023-04-14T08:00:58.732Z,66.00
2023-04-14T08:03:27.234Z,66.20
2023-04-14T08:05:57.839Z,66.20
2023-04-14T08:08:26.136Z,66.20
2023-04-14T08:10:54.200Z,66.00
2023-04-14T08:13:22.261Z,65.90
2023-04-14T08:15:51.887Z,65.70
2023-04-14T08:18:20.116Z,65.80
2023-04-14T08:20:48.627Z,65.70
2023-04-14T08:23:17.053Z,65.60
2023-04-14T08:25:45.640Z,65.60
2023-04-14T08:28:13.756Z,65.50
2023-04-14T08:30:41.915Z,65.50
2023-04-14T08:33:11.746Z,65.40
2023-04-14T08:35:42.826Z,65.20
2023-04-14T08:38:11.991Z,65.20
2023-04-14T08:40:41.994Z,65.10
2023-04-14T08:43:12.449Z,65.00
2023-04-14T08:45:43.833Z,64.80
2023-04-14T08:48:16.539Z,64.70
2023-04-14T08:50:54.821Z,64.50
2023-04-14T08:53:24.646Z,64.30
2023-04-14T08:55:54.507Z,64.40
2023-04-14T08:58:23.339Z,64.40
2023-04-14T09:00:53.200Z,64.10
2023-04-14T09:03:23.089Z,64.00
2023-04-14T09:05:53.114Z,63.70
2023-04-14T09:08:21.276Z,63.60
2023-04-14T09:10:50.300Z,63.70
2023-04-14T09:13:20.938Z,63.60
2023-04-14T09:15:49.666Z,63.60
2023-04-14T09:18:19.294Z,63.40
2023-04-14T09:21:29.357Z,63.50
2023-04-14T09:23:41.653Z,63.40
2023-04-14T09:26:10.601Z,63.30
2023-04-14T09:28:38.890Z,63.20
2023-04-14T09:31:08.316Z,63.20
2023-04-14T09:33:41.374Z,63.30
2023-04-14T09:36:19.485Z,63.30
2023-04-14T09:38:48.255Z,63.20
2023-04-14T09:41:19.852Z,63.00
2023-04-14T09:43:47.973Z,62.70
2023-04-14T09:46:16.572Z,62.40
2023-04-14T09:48:55.267Z,62.50
2023-04-14T09:51:33.011Z,62.60
2023-04-14T09:54:03.767Z,62.20
2023-04-14T09:56:34.194Z,62.00
2023-04-14T09:59:03.685Z,61.90
2023-04-14T10:01:34.560Z,62.20
2023-04-14T10:04:03.766Z,61.70
2023-04-14T10:06:33.362Z,60.90
2023-04-14T10:09:02.639Z,60.00
2023-04-14T10:11:32.769Z,59.70
2023-04-14T10:14:02.399Z,59.50
2023-04-14T10:16:31.054Z,59.20
2023-04-14T10:18:59.719Z,58.80
2023-04-14T10:21:28.745Z,58.90
2023-04-14T10:23:58.608Z,58.80
2023-04-14T10:26:27.365Z,58.60
2023-04-14T10:28:57.143Z,58.70
2023-04-14T10:31:29.282Z,58.40
2023-04-14T10:33:57.532Z,57.30
2023-04-14T10:36:27.210Z,56.80
2023-04-14T10:39:04.413Z,56.40
2023-04-14T10:41:46.964Z,56.10
2023-04-14T10:44:25.596Z,55.50
2023-04-14T10:46:56.487Z,55.10
2023-04-14T10:49:32.816Z,54.70
2023-04-14T10:52:02.368Z,53.80
2023-04-14T10:54:50.014Z,53.40
2023-04-14T10:57:19.293Z,52.90
2023-04-14T10:59:48.076Z,53.10
2023-04-14T11:02:26.894Z,52.70
2023-04-14T11:05:04.012Z,52.40
2023-04-14T11:07:33.414Z,52.80
2023-04-14T11:10:26.840Z,52.40
2023-04-14T11:13:01.909Z,51.90
2023-04-14T11:15:46.761Z,51.80
2023-04-14T11:18:16.528Z,51.50
2023-04-14T11:20:45.750Z,50.80
2023-04-14T11:23:15.494Z,50.30
2023-04-14T11:25:45.737Z,50.00
2023-04-14T11:28:13.814Z,49.90
2023-04-14T11:30:44.101Z,49.90
2023-04-14T11:33:12.743Z,49.80
2023-04-14T11:35:43.349Z,49.70
2023-04-14T11:38:12.665Z,49.50
2023-04-14T11:40:40.808Z,49.30
2023-04-14T11:43:10.303Z,49.20
2023-04-14T11:45:43.892Z,48.80
2023-04-14T11:48:13.236Z,47.90
2023-04-14T11:50:42.679Z,47.70
2023-04-14T11:53:12.215Z,47.40
2023-04-14T11:55:44.237Z,46.60
2023-04-14T11:58:15.020Z,46.10
2023-04-14T12:00:44.151Z,45.50
2023-04-14T12:03:12.474Z,45.00
2023-04-14T12:05:41.064Z,44.80
2023-04-14T12:08:12.214Z,44.30
2023-04-14T12:10:42.177Z,43.50
2023-04-14T12:13:11.782Z,43.30
2023-04-14T12:15:42.635Z,43.40
2023-04-14T12:18:13.572Z,43.20
2023-04-14T12:20:44.011Z,42.70
2023-04-14T12:23:12.356Z,42.40
2023-04-14T12:25:41.046Z,42.00
2023-04-14T12:28:09.274Z,42.00
2023-04-14T12:30:38.563Z,42.00
2023-04-14T12:33:12.587Z,41.60
2023-04-14T12:35:41.460Z,41.40
2023-04-14T12:38:13.781Z,41.50
2023-04-14T12:40:43.857Z,42.00
2023-04-14T12:43:12.157Z,41.40
2023-04-14T12:45:44.268Z,41.00
2023-04-14T12:48:15.945Z,40.80
2023-04-14T12:50:44.693Z,40.80
2023-04-14T12:53:26.151Z,40.80
2023-04-14T12:56:10.528Z,40.70
2023-04-14T12:58:40.076Z,40.70
2023-04-14T13:01:08.708Z,41.00
2023-04-14T13:03:46.307Z,40.80
2023-04-14T13:06:17.241Z,40.70
2023-04-14T13:08:46.137Z,40.80
2023-04-14T13:11:14.817Z,40.60
2023-04-14T13:13:44.378Z,40.40
2023-04-14T13:16:16.340Z,40.20
2023-04-14T13:18:47.715Z,40.10
2023-04-14T13:21:16.447Z,40.30
2023-04-14T13:23:44.876Z,40.50
2023-04-14T13:26:13.502Z,40.20
2023-04-14T13:28:41.828Z,40.00
2023-04-14T13:31:11.624Z,40.00
2023-04-14T13:33:39.764Z,40.00
2023-04-14T13:36:09.450Z,40.10
2023-04-14T13:38:37.508Z,39.80
2023-04-14T13:41:05.689Z,39.90
2023-04-14T13:43:34.833Z,39.90
2023-04-14T13:46:03.189Z,40.00
2023-04-14T13:48:32.761Z,40.00
2023-04-14T13:51:01.961Z,39.90
2023-04-14T13:53:31.479Z,40.00
2023-04-14T13:55:59.543Z,39.90
2023-04-14T13:58:27.932Z,39.90
2023-04-14T14:00:56.698Z,39.80
2023-04-14T14:03:26.028Z,39.70
2023-04-14T14:05:54.962Z,39.50
2023-04-14T14:08:23.156Z,39.40
2023-04-14T14:10:54.298Z,39.30
2023-04-14T14:13:22.349Z,39.20
2023-04-14T14:15:50.470Z,39.50
2023-04-14T14:18:18.626Z,39.40
2023-04-14T14:20:47.241Z,39.30
2023-04-14T14:23:16.229Z,39.20
2023-04-14T14:25:44.661Z,39.00
2023-04-14T14:28:14.545Z,39.10
2023-04-14T14:30:42.680Z,39.20
2023-04-14T14:33:10.827Z,39.10
2023-04-14T14:35:39.290Z,39.10
2023-04-14T14:38:07.396Z,39.20
2023-04-14T14:40:35.577Z,39.20
2023-04-14T14:43:03.630Z,39.40
2023-04-14T14:45:33.255Z,39.30
2023-04-14T14:48:01.969Z,39.40
2023-04-14T14:50:30.322Z,39.40
2023-04-14T14:52:58.333Z,39.40
2023-04-14T14:55:27.315Z,39.30
2023-04-14T14:57:55.468Z,39.20
2023-04-14T15:00:23.499Z,39.10
2023-04-14T15:02:53.504Z,38.80
2023-04-14T15:05:21.929Z,38.50
2023-04-14T15:07:50.949Z,38.40
2023-04-14T15:10:19.256Z,38.60
2023-04-14T15:12:47.594Z,38.50
2023-04-14T15:15:15.688Z,38.50
2023-04-14T15:17:44.103Z,38.80
2023-04-14T15:20:14.411Z,38.70
2023-04-14T15:22:42.463Z,38.40
2023-04-14T15:25:11.656Z,38.10
2023-04-14T15:27:39.763Z,38.00
2023-04-14T15:30:09.124Z,38.00
2023-04-14T15:32:37.251Z,37.90
2023-04-14T15:35:06.028Z,37.70
2023-04-14T15:37:35.605Z,37.60
2023-04-14T15:40:04.176Z,37.30
2023-04-14T15:42:32.220Z,37.10
2023-04-14T15:45:00.312Z,37.00
2023-04-14T15:47:28.411Z,37.00
2023-04-14T15:50:08.575Z,37.50
2023-04-14T15:52:39.517Z,36.90
2023-04-14T15:55:08.968Z,36.80
2023-04-14T15:57:37.219Z,36.80
2023-04-14T16:00:07.716Z,36.70
2023-04-14T16:02:36.321Z,36.40
2023-04-14T16:05:05.520Z,36.30
2023-04-14T16:07:33.706Z,36.20
2023-04-14T16:10:05.000Z,36.10
2023-04-14T16:12:35.118Z,36.00
2023-04-14T16:15:03.414Z,36.20
2023-04-14T16:17:31.758Z,36.50
2023-04-14T16:19:59.869Z,36.80
2023-04-14T16:22:29.443Z,37.10
2023-04-14T16:24:57.506Z,37.30
2023-04-14T16:27:26.960Z,37.60
2023-04-14T16:29:54.990Z,37.80
2023-04-14T16:32:23.171Z,37.80
2023-04-14T16:34:51.468Z,37.60
2023-04-14T16:37:19.595Z,38.30
2023-04-14T16:39:47.650Z,38.00
2023-04-14T16:42:18.638Z,38.00
2023-04-14T16:44:48.101Z,38.10
2023-04-14T16:47:16.178Z,38.40
2023-04-14T16:49:46.086Z,38.60
2023-04-14T16:52:14.173Z,38.60
2023-04-14T16:54:42.746Z,38.90
2023-04-14T16:57:10.971Z,39.00
2023-04-14T16:59:39.854Z,39.20
2023-04-14T17:02:09.422Z,39.30
2023-04-14T17:04:37.752Z,39.50
2023-04-14T17:07:06.179Z,39.70
2023-04-14T17:09:34.250Z,39.50
2023-04-14T17:12:02.425Z,39.40
2023-04-14T17:14:30.547Z,39.40
2023-04-14T17:16:58.792Z,39.40
2023-04-14T17:19:28.461Z,39.30
2023-04-14T17:21:56.901Z,39.20
2023-04-14T17:24:25.336Z,39.40
2023-04-14T17:26:53.451Z,39.20
2023-04-14T17:29:21.797Z,39.20
2023-04-14T17:31:49.969Z,39.20
2023-04-14T17:34:19.324Z,39.20
2023-04-14T17:36:49.980Z,39.30
2023-04-14T17:39:20.690Z,39.40
2023-04-14T17:41:49.177Z,39.50
2023-04-14T17:44:17.223Z,39.60
2023-04-14T17:46:46.145Z,39.60
2023-04-14T17:49:14.829Z,39.60
2023-04-14T17:51:43.683Z,39.60
2023-04-14T17:54:13.340Z,39.70
2023-04-14T17:56:41.465Z,39.70
2023-04-14T17:59:10.968Z,39.80
2023-04-14T18:01:39.302Z,39.80
2023-04-14T18:04:07.446Z,39.80
2023-04-14T18:06:35.950Z,39.90
2023-04-14T18:09:04.646Z,40.00
2023-04-14T18:11:34.083Z,40.00
2023-04-14T18:14:02.326Z,40.10
2023-04-14T18:16:31.385Z,40.10
2023-04-14T18:18:59.699Z,40.20
2023-04-14T18:21:28.754Z,40.30
2023-04-14T18:26:27.741Z,40.30
2023-04-14T18:28:57.378Z,40.40
2023-04-14T18:31:25.500Z,40.30
2023-04-14T18:33:53.912Z,40.40
2023-04-14T18:36:22.277Z,40.40
2023-04-14T18:38:50.491Z,40.40
2023-04-14T18:41:19.883Z,40.40
2023-04-14T18:43:47.968Z,40.40
2023-04-14T18:46:17.455Z,40.50
2023-04-14T18:48:45.827Z,40.50
2023-04-14T18:51:13.884Z,40.50
2023-04-14T18:53:43.850Z,40.70
2023-04-14T18:56:11.909Z,40.90
2023-04-14T18:58:40.045Z,40.90
2023-04-14T19:01:08.729Z,41.00
2023-04-14T19:03:38.611Z,41.00
2023-04-14T19:06:06.760Z,41.10
2023-04-14T19:08:34.804Z,41.30
2023-04-14T19:11:03.492Z,41.50
2023-04-14T19:13:31.558Z,42.20
2023-04-14T19:16:06.117Z,41.70
2023-04-14T19:18:34.293Z,41.90
2023-04-14T19:21:03.918Z,42.00
2023-04-14T19:23:31.994Z,42.10
2023-04-14T19:26:00.603Z,42.20
2023-04-14T19:28:29.345Z,42.40
2023-04-14T19:30:57.421Z,42.50
2023-04-14T19:33:26.900Z,42.60
2023-04-14T19:35:55.072Z,42.60
2023-04-14T19:38:24.762Z,42.70
2023-04-14T19:40:53.011Z,42.90
2023-04-14T19:43:21.071Z,42.90
2023-04-14T19:45:57.045Z,42.90
2023-04-14T19:48:26.316Z,43.10
2023-04-14T19:50:55.523Z,43.00
2023-04-14T19:53:25.425Z,43.10
2023-04-14T19:55:55.832Z,43.10
2023-04-14T19:58:24.795Z,43.20
2023-04-14T20:00:55.797Z,43.20
2023-04-14T20:03:24.514Z,43.30
2023-04-14T20:05:54.766Z,43.30
2023-04-14T20:08:24.375Z,43.40
2023-04-14T20:10:54.287Z,43.40
2023-04-14T20:13:24.076Z,43.30
2023-04-14T20:15:54.891Z,43.30
2023-04-14T20:18:23.456Z,43.30
2023-04-14T20:20:52.735Z,43.20
2023-04-14T20:23:20.796Z,43.30
2023-04-14T20:25:51.242Z,43.20
2023-04-14T20:28:20.121Z,43.20
2023-04-14T20:30:50.924Z,43.10
2023-04-14T20:33:21.304Z,43.10
2023-04-14T20:35:51.562Z,43.00
2023-04-14T20:38:19.726Z,42.90
2023-04-14T20:40:49.256Z,42.90
2023-04-14T20:43:17.350Z,42.90
2023-04-14T20:45:45.665Z,42.70
2023-04-14T20:48:13.765Z,42.70
2023-04-14T20:50:41.908Z,42.40
2023-04-14T20:53:09.975Z,42.30
2023-04-14T20:55:41.085Z,42.20
2023-04-14T20:58:10.795Z,42.00
2023-04-14T21:00:38.862Z,42.00
2023-04-14T21:03:07.305Z,41.80
2023-04-14T21:05:35.633Z,41.70
2023-04-14T21:08:03.772Z,41.60
2023-04-14T21:10:31.887Z,41.50
2023-04-14T21:15:30.955Z,41.40
2023-04-14T21:15:53.884Z,41.10
2023-04-14T21:18:23.728Z,41.00
2023-04-14T21:20:51.832Z,41.00
2023-04-14T21:23:20.305Z,40.80
2023-04-14T21:25:48.766Z,40.80
2023-04-14T21:28:16.968Z,40.70
2023-04-14T21:30:45.203Z,40.70
2023-04-14T21:33:14.678Z,40.60
2023-04-14T21:35:43.335Z,40.70
2023-04-14T21:38:11.421Z,40.80
2023-04-14T21:40:39.526Z,40.80
2023-04-14T21:43:07.596Z,40.80
2023-04-14T21:45:36.060Z,40.90
2023-04-14T21:48:04.260Z,40.90
2023-04-14T21:50:34.631Z,40.80
2023-04-14T21:53:04.201Z,40.90
2023-04-14T21:55:32.493Z,41.50
2023-04-14T21:58:00.609Z,41.00
2023-04-14T22:00:28.777Z,40.90
2023-04-14T22:02:56.949Z,41.00
2023-04-14T22:05:25.040Z,41.00
2023-04-14T22:07:55.190Z,40.90
2023-04-14T22:10:23.523Z,41.10
2023-04-14T22:12:52.081Z,41.00
2023-04-14T22:15:20.318Z,41.00
2023-04-14T22:17:48.386Z,40.90
2023-04-14T22:20:16.575Z,40.80
2023-04-14T22:22:44.626Z,40.90
2023-04-14T22:25:14.329Z,40.80
2023-04-14T22:27:42.727Z,40.70
2023-04-14T22:30:12.777Z,40.80
2023-04-14T22:32:40.853Z,40.90
2023-04-14T22:35:09.612Z,40.80
2023-04-14T22:37:37.692Z,40.90
2023-04-14T22:40:06.723Z,41.00
2023-04-14T22:42:36.656Z,41.00
2023-04-14T22:45:05.164Z,41.00
2023-04-14T22:47:33.273Z,41.10
2023-04-14T22:50:03.163Z,41.10
2023-04-14T22:52:31.745Z,41.20
2023-04-14T22:54:59.823Z,41.40
2023-04-14T22:57:27.912Z,41.50
2023-04-14T22:59:57.414Z,41.50
2023-04-14T23:02:26.061Z,41.60
2023-04-14T23:04:54.269Z,41.60
2023-04-14T23:07:22.451Z,41.70
2023-04-14T23:09:50.811Z,41.80
2023-04-14T23:12:18.866Z,41.80
2023-04-14T23:14:46.962Z,41.90
2023-04-14T23:17:16.393Z,41.90
2023-04-14T23:19:44.468Z,41.90
2023-04-14T23:22:12.521Z,41.90
2023-04-14T23:24:40.814Z,42.00
2023-04-14T23:27:08.871Z,42.10
2023-04-14T23:29:37.559Z,42.20
2023-04-14T23:32:06.126Z,42.20
2023-04-14T23:34:35.696Z,42.30
2023-04-14T23:37:03.914Z,42.40
2023-04-14T23:39:32.565Z,42.60
2023-04-14T23:42:00.662Z,42.70
2023-04-14T23:44:29.053Z,42.90
2023-04-14T23:46:57.456Z,42.90
2023-04-14T23:49:35.394Z,43.00
2023-04-14T23:52:05.629Z,43.20
2023-04-14T23:54:33.696Z,43.30
2023-04-14T23:57:01.725Z,43.40
2023-04-14T23:59:30.010Z,43.50
